ENSH/SVJ METAR and TAF weather

Enter ICAO airport designator
Station Type Date Time Source
ENSH METAR 2020/07/11 12:20 UTC NOAA

ENSH 111220Z 22010KT 9999 FEW023 BKN060 15/09 Q1008 RMK WIND 150FT 19015KT


Station Type Date Time Source
ENSH Decoded METAR 2020/07/11 12:20 UTC NOAA

Svolvaer / Helle, Norway (ENSH) 68-15N 014-40E 9M
Jul 11, 2020 - 08:20 AM EDT / 2020.07.11 1220 UTC
Wind: from the SW (220 degrees) at 12 MPH (10 KT):0
Visibility: greater than 7 mile(s):0
Sky conditions: mostly cloudy
Temperature: 59 F (15 C)
Dew Point: 48 F (9 C)
Relative Humidity: 67%
Pressure (altimeter): 29.77 in. Hg (1008 hPa)
ob: ENSH 111220Z 22010KT 9999 FEW023 BKN060 15/09 Q1008 RMK WIND 150FT 19015KT
cycle: 12

Station Type Date Time Source
ENSH TAF UTC NOAA

Error!

Example: see airport list